sensor_id;sensor_type;location;lat;lon;timestamp;P1;durP1;ratioP1;P2;durP2;ratioP2
74459;SDS011;62902;48.854;9.292;2022-11-03T00:01:46;10.68;;;4.35;;
74459;SDS011;62902;48.854;9.292;2022-11-03T00:04:14;12.80;;;4.03;;
74459;SDS011;62902;48.854;9.292;2022-11-03T00:06:43;15.60;;;4.53;;
74459;SDS011;62902;48.854;9.292;2022-11-03T00:09:11;9.52;;;4.15;;
74459;SDS011;62902;48.854;9.292;2022-11-03T00:11:40;12.57;;;4.63;;
74459;SDS011;62902;48.854;9.292;2022-11-03T00:14:07;9.57;;;3.75;;
74459;SDS011;62902;48.854;9.292;2022-11-03T00:16:35;10.70;;;3.92;;
74459;SDS011;62902;48.854;9.292;2022-11-03T00:19:02;9.70;;;4.25;;
74459;SDS011;62902;48.854;9.292;2022-11-03T00:21:29;8.77;;;3.50;;
74459;SDS011;62902;48.854;9.292;2022-11-03T00:23:56;8.63;;;3.30;;
74459;SDS011;62902;48.854;9.292;2022-11-03T00:26:26;9.70;;;3.88;;
74459;SDS011;62902;48.854;9.292;2022-11-03T00:28:57;11.57;;;3.95;;
74459;SDS011;62902;48.854;9.292;2022-11-03T00:31:28;8.70;;;3.67;;
74459;SDS011;62902;48.854;9.292;2022-11-03T00:33:57;10.30;;;3.72;;
74459;SDS011;62902;48.854;9.292;2022-11-03T00:36:25;9.10;;;3.80;;
74459;SDS011;62902;48.854;9.292;2022-11-03T00:38:53;11.18;;;3.88;;
74459;SDS011;62902;48.854;9.292;2022-11-03T00:41:20;11.27;;;4.00;;
74459;SDS011;62902;48.854;9.292;2022-11-03T00:43:47;13.65;;;4.55;;
74459;SDS011;62902;48.854;9.292;2022-11-03T00:46:14;11.05;;;4.00;;
74459;SDS011;62902;48.854;9.292;2022-11-03T00:48:41;9.35;;;3.65;;
74459;SDS011;62902;48.854;9.292;2022-11-03T00:53:52;9.63;;;3.83;;
74459;SDS011;62902;48.854;9.292;2022-11-03T00:56:20;9.68;;;4.03;;
74459;SDS011;62902;48.854;9.292;2022-11-03T00:58:49;9.05;;;3.58;;
74459;SDS011;62902;48.854;9.292;2022-11-03T01:01:20;10.77;;;3.90;;
74459;SDS011;62902;48.854;9.292;2022-11-03T01:03:49;10.18;;;3.97;;
74459;SDS011;62902;48.854;9.292;2022-11-03T01:06:37;9.65;;;3.80;;
74459;SDS011;62902;48.854;9.292;2022-11-03T01:12:01;9.63;;;4.22;;
74459;SDS011;62902;48.854;9.292;2022-11-03T01:14:36;10.32;;;3.80;;
74459;SDS011;62902;48.854;9.292;2022-11-03T01:17:08;11.68;;;4.38;;
74459;SDS011;62902;48.854;9.292;2022-11-03T01:19:39;7.22;;;3.83;;
74459;SDS011;62902;48.854;9.292;2022-11-03T01:22:06;9.63;;;4.22;;
74459;SDS011;62902;48.854;9.292;2022-11-03T01:24:36;10.93;;;4.25;;
74459;SDS011;62902;48.854;9.292;2022-11-03T01:27:03;12.23;;;4.25;;
74459;SDS011;62902;48.854;9.292;2022-11-03T01:29:30;11.18;;;4.05;;
74459;SDS011;62902;48.854;9.292;2022-11-03T01:31:57;10.48;;;3.90;;
74459;SDS011;62902;48.854;9.292;2022-11-03T01:34:23;7.85;;;3.50;;
74459;SDS011;62902;48.854;9.292;2022-11-03T01:36:50;12.95;;;3.75;;
74459;SDS011;62902;48.854;9.292;2022-11-03T01:39:17;11.77;;;3.90;;
74459;SDS011;62902;48.854;9.292;2022-11-03T01:41:45;14.48;;;4.47;;
74459;SDS011;62902;48.854;9.292;2022-11-03T01:49:32;11.02;;;4.35;;
74459;SDS011;62902;48.854;9.292;2022-11-03T01:52:12;7.30;;;3.80;;
74459;SDS011;62902;48.854;9.292;2022-11-03T01:54:42;15.55;;;3.53;;
74459;SDS011;62902;48.854;9.292;2022-11-03T01:57:11;15.43;;;3.80;;
74459;SDS011;62902;48.854;9.292;2022-11-03T01:59:40;11.07;;;4.38;;
74459;SDS011;62902;48.854;9.292;2022-11-03T02:02:07;15.57;;;4.05;;
74459;SDS011;62902;48.854;9.292;2022-11-03T02:04:34;6.85;;;3.40;;
74459;SDS011;62902;48.854;9.292;2022-11-03T02:07:04;11.88;;;3.83;;
74459;SDS011;62902;48.854;9.292;2022-11-03T02:09:35;9.65;;;4.03;;
74459;SDS011;62902;48.854;9.292;2022-11-03T02:12:02;11.60;;;4.30;;
74459;SDS011;62902;48.854;9.292;2022-11-03T02:14:31;15.02;;;3.90;;
74459;SDS011;62902;48.854;9.292;2022-11-03T02:17:00;10.45;;;4.22;;
74459;SDS011;62902;48.854;9.292;2022-11-03T02:19:38;13.30;;;4.95;;
74459;SDS011;62902;48.854;9.292;2022-11-03T02:22:25;12.50;;;4.22;;
74459;SDS011;62902;48.854;9.292;2022-11-03T02:27:53;10.48;;;3.85;;
74459;SDS011;62902;48.854;9.292;2022-11-03T02:30:20;11.55;;;4.20;;
74459;SDS011;62902;48.854;9.292;2022-11-03T02:32:51;10.50;;;4.38;;
74459;SDS011;62902;48.854;9.292;2022-11-03T02:37:58;9.73;;;4.57;;
74459;SDS011;62902;48.854;9.292;2022-11-03T02:40:31;14.45;;;4.22;;
74459;SDS011;62902;48.854;9.292;2022-11-03T02:42:59;12.93;;;3.67;;
74459;SDS011;62902;48.854;9.292;2022-11-03T02:45:27;9.38;;;3.95;;
74459;SDS011;62902;48.854;9.292;2022-11-03T02:47:54;10.73;;;4.03;;
74459;SDS011;62902;48.854;9.292;2022-11-03T02:50:31;10.73;;;3.85;;
74459;SDS011;62902;48.854;9.292;2022-11-03T02:52:59;7.47;;;3.55;;
74459;SDS011;62902;48.854;9.292;2022-11-03T02:55:37;11.68;;;4.40;;
74459;SDS011;62902;48.854;9.292;2022-11-03T03:03:47;10.60;;;4.22;;
74459;SDS011;62902;48.854;9.292;2022-11-03T03:06:16;9.23;;;4.38;;
74459;SDS011;62902;48.854;9.292;2022-11-03T03:08:47;10.85;;;4.40;;
74459;SDS011;62902;48.854;9.292;2022-11-03T03:11:16;13.73;;;4.65;;
74459;SDS011;62902;48.854;9.292;2022-11-03T03:14:14;6.88;;;3.63;;
74459;SDS011;62902;48.854;9.292;2022-11-03T03:19:26;8.73;;;4.00;;
74459;SDS011;62902;48.854;9.292;2022-11-03T03:21:55;16.10;;;4.30;;
74459;SDS011;62902;48.854;9.292;2022-11-03T03:27:02;12.88;;;4.18;;
74459;SDS011;62902;48.854;9.292;2022-11-03T03:29:35;8.23;;;4.30;;
74459;SDS011;62902;48.854;9.292;2022-11-03T03:32:05;10.88;;;4.13;;
74459;SDS011;62902;48.854;9.292;2022-11-03T03:34:33;9.85;;;4.20;;
74459;SDS011;62902;48.854;9.292;2022-11-03T03:37:01;9.45;;;4.20;;
74459;SDS011;62902;48.854;9.292;2022-11-03T03:39:30;9.38;;;4.20;;
74459;SDS011;62902;48.854;9.292;2022-11-03T03:41:59;15.60;;;4.10;;
74459;SDS011;62902;48.854;9.292;2022-11-03T03:44:27;12.00;;;4.53;;
74459;SDS011;62902;48.854;9.292;2022-11-03T03:46:56;9.73;;;3.85;;
74459;SDS011;62902;48.854;9.292;2022-11-03T03:49:25;13.65;;;4.40;;
74459;SDS011;62902;48.854;9.292;2022-11-03T03:51:52;10.32;;;4.18;;
74459;SDS011;62902;48.854;9.292;2022-11-03T03:54:19;10.90;;;3.97;;
74459;SDS011;62902;48.854;9.292;2022-11-03T03:57:04;9.32;;;4.45;;
74459;SDS011;62902;48.854;9.292;2022-11-03T03:59:32;14.35;;;5.00;;
74459;SDS011;62902;48.854;9.292;2022-11-03T04:01:59;10.55;;;4.40;;
74459;SDS011;62902;48.854;9.292;2022-11-03T04:04:26;16.35;;;4.07;;
74459;SDS011;62902;48.854;9.292;2022-11-03T04:06:52;10.90;;;4.57;;
74459;SDS011;62902;48.854;9.292;2022-11-03T04:09:39;11.30;;;4.70;;
74459;SDS011;62902;48.854;9.292;2022-11-03T04:12:06;9.20;;;4.45;;
74459;SDS011;62902;48.854;9.292;2022-11-03T04:14:52;12.35;;;4.75;;
74459;SDS011;62902;48.854;9.292;2022-11-03T04:17:54;7.90;;;4.43;;
74459;SDS011;62902;48.854;9.292;2022-11-03T04:20:39;11.38;;;4.15;;
74459;SDS011;62902;48.854;9.292;2022-11-03T04:23:24;13.13;;;4.53;;
74459;SDS011;62902;48.854;9.292;2022-11-03T04:25:52;9.43;;;4.22;;
74459;SDS011;62902;48.854;9.292;2022-11-03T04:28:20;10.98;;;4.43;;
74459;SDS011;62902;48.854;9.292;2022-11-03T04:30:47;8.65;;;3.72;;
74459;SDS011;62902;48.854;9.292;2022-11-03T04:33:17;12.90;;;5.13;;
74459;SDS011;62902;48.854;9.292;2022-11-03T04:35:46;8.73;;;4.20;;
74459;SDS011;62902;48.854;9.292;2022-11-03T04:40:43;12.90;;;4.18;;
74459;SDS011;62902;48.854;9.292;2022-11-03T04:43:16;11.20;;;4.28;;
74459;SDS011;62902;48.854;9.292;2022-11-03T04:45:44;9.57;;;4.40;;
74459;SDS011;62902;48.854;9.292;2022-11-03T04:48:12;10.73;;;4.63;;
74459;SDS011;62902;48.854;9.292;2022-11-03T04:50:44;13.00;;;4.75;;
74459;SDS011;62902;48.854;9.292;2022-11-03T04:53:13;9.27;;;4.30;;
74459;SDS011;62902;48.854;9.292;2022-11-03T04:55:41;13.55;;;4.15;;
74459;SDS011;62902;48.854;9.292;2022-11-03T05:00:39;10.98;;;4.38;;
74459;SDS011;62902;48.854;9.292;2022-11-03T05:03:06;10.20;;;4.43;;
74459;SDS011;62902;48.854;9.292;2022-11-03T05:05:38;8.68;;;4.45;;
74459;SDS011;62902;48.854;9.292;2022-11-03T05:08:07;7.97;;;3.63;;
74459;SDS011;62902;48.854;9.292;2022-11-03T05:10:34;12.50;;;3.75;;
74459;SDS011;62902;48.854;9.292;2022-11-03T05:13:00;10.52;;;4.60;;
74459;SDS011;62902;48.854;9.292;2022-11-03T05:17:55;17.85;;;4.47;;
74459;SDS011;62902;48.854;9.292;2022-11-03T05:20:38;9.82;;;4.20;;
74459;SDS011;62902;48.854;9.292;2022-11-03T05:23:16;9.93;;;4.32;;
74459;SDS011;62902;48.854;9.292;2022-11-03T05:25:44;16.50;;;4.22;;
74459;SDS011;62902;48.854;9.292;2022-11-03T05:28:25;9.15;;;3.67;;
74459;SDS011;62902;48.854;9.292;2022-11-03T05:30:54;11.88;;;4.40;;
74459;SDS011;62902;48.854;9.292;2022-11-03T05:35:53;9.95;;;4.13;;
74459;SDS011;62902;48.854;9.292;2022-11-03T05:38:21;11.55;;;4.38;;
74459;SDS011;62902;48.854;9.292;2022-11-03T05:40:49;11.60;;;4.45;;
74459;SDS011;62902;48.854;9.292;2022-11-03T05:43:17;10.13;;;4.32;;
74459;SDS011;62902;48.854;9.292;2022-11-03T05:45:46;10.30;;;4.47;;
74459;SDS011;62902;48.854;9.292;2022-11-03T05:48:26;13.50;;;4.07;;
74459;SDS011;62902;48.854;9.292;2022-11-03T05:50:59;7.60;;;3.58;;
74459;SDS011;62902;48.854;9.292;2022-11-03T05:53:35;10.98;;;4.15;;
74459;SDS011;62902;48.854;9.292;2022-11-03T05:56:16;9.63;;;3.80;;
74459;SDS011;62902;48.854;9.292;2022-11-03T05:58:45;10.07;;;4.18;;
74459;SDS011;62902;48.854;9.292;2022-11-03T06:01:13;10.05;;;4.55;;
74459;SDS011;62902;48.854;9.292;2022-11-03T06:03:44;7.80;;;4.28;;
74459;SDS011;62902;48.854;9.292;2022-11-03T06:06:17;14.02;;;4.90;;
74459;SDS011;62902;48.854;9.292;2022-11-03T06:08:46;10.40;;;4.57;;
74459;SDS011;62902;48.854;9.292;2022-11-03T06:11:15;14.95;;;5.22;;
74459;SDS011;62902;48.854;9.292;2022-11-03T06:13:46;13.63;;;5.25;;
74459;SDS011;62902;48.854;9.292;2022-11-03T06:18:42;11.73;;;4.68;;
74459;SDS011;62902;48.854;9.292;2022-11-03T06:21:13;11.18;;;4.40;;
74459;SDS011;62902;48.854;9.292;2022-11-03T06:23:43;12.23;;;4.15;;
74459;SDS011;62902;48.854;9.292;2022-11-03T06:26:17;12.48;;;4.57;;
74459;SDS011;62902;48.854;9.292;2022-11-03T06:28:44;11.70;;;4.88;;
74459;SDS011;62902;48.854;9.292;2022-11-03T06:33:43;8.55;;;4.05;;
74459;SDS011;62902;48.854;9.292;2022-11-03T06:36:23;11.65;;;4.32;;
74459;SDS011;62902;48.854;9.292;2022-11-03T06:38:53;10.07;;;4.18;;
74459;SDS011;62902;48.854;9.292;2022-11-03T06:41:25;7.82;;;4.10;;
74459;SDS011;62902;48.854;9.292;2022-11-03T06:43:53;7.25;;;3.90;;
74459;SDS011;62902;48.854;9.292;2022-11-03T06:46:20;13.63;;;4.68;;
74459;SDS011;62902;48.854;9.292;2022-11-03T06:48:59;13.23;;;4.88;;
74459;SDS011;62902;48.854;9.292;2022-11-03T06:51:27;12.68;;;4.38;;
74459;SDS011;62902;48.854;9.292;2022-11-03T06:53:58;11.23;;;4.53;;
74459;SDS011;62902;48.854;9.292;2022-11-03T06:56:27;11.02;;;4.82;;
74459;SDS011;62902;48.854;9.292;2022-11-03T06:58:56;12.90;;;4.10;;
74459;SDS011;62902;48.854;9.292;2022-11-03T07:01:29;10.68;;;4.47;;
74459;SDS011;62902;48.854;9.292;2022-11-03T07:04:19;13.63;;;4.72;;
74459;SDS011;62902;48.854;9.292;2022-11-03T07:06:46;9.38;;;4.13;;
74459;SDS011;62902;48.854;9.292;2022-11-03T07:09:19;9.90;;;4.18;;
74459;SDS011;62902;48.854;9.292;2022-11-03T07:11:48;8.68;;;4.00;;
74459;SDS011;62902;48.854;9.292;2022-11-03T07:14:17;10.85;;;4.30;;
74459;SDS011;62902;48.854;9.292;2022-11-03T07:16:46;9.82;;;5.03;;
74459;SDS011;62902;48.854;9.292;2022-11-03T07:19:32;13.07;;;5.03;;
74459;SDS011;62902;48.854;9.292;2022-11-03T07:22:04;14.63;;;6.05;;
74459;SDS011;62902;48.854;9.292;2022-11-03T07:24:37;10.25;;;5.55;;
74459;SDS011;62902;48.854;9.292;2022-11-03T07:27:13;11.85;;;5.32;;
74459;SDS011;62902;48.854;9.292;2022-11-03T07:29:45;12.30;;;5.28;;
74459;SDS011;62902;48.854;9.292;2022-11-03T07:32:23;10.10;;;4.78;;
74459;SDS011;62902;48.854;9.292;2022-11-03T07:34:52;11.77;;;5.40;;
74459;SDS011;62902;48.854;9.292;2022-11-03T07:37:28;10.30;;;5.50;;
74459;SDS011;62902;48.854;9.292;2022-11-03T07:39:55;12.68;;;4.97;;
74459;SDS011;62902;48.854;9.292;2022-11-03T07:42:23;10.93;;;4.68;;
74459;SDS011;62902;48.854;9.292;2022-11-03T07:44:52;11.68;;;4.75;;
74459;SDS011;62902;48.854;9.292;2022-11-03T07:47:21;12.77;;;5.50;;
74459;SDS011;62902;48.854;9.292;2022-11-03T07:49:52;16.88;;;5.53;;
74459;SDS011;62902;48.854;9.292;2022-11-03T07:52:20;15.20;;;5.70;;
74459;SDS011;62902;48.854;9.292;2022-11-03T07:54:49;11.88;;;5.30;;
74459;SDS011;62902;48.854;9.292;2022-11-03T07:59:57;8.95;;;4.65;;
74459;SDS011;62902;48.854;9.292;2022-11-03T08:02:50;13.52;;;4.47;;
74459;SDS011;62902;48.854;9.292;2022-11-03T08:05:20;11.40;;;4.40;;
74459;SDS011;62902;48.854;9.292;2022-11-03T08:07:47;10.15;;;4.32;;
74459;SDS011;62902;48.854;9.292;2022-11-03T08:10:14;10.65;;;4.72;;
74459;SDS011;62902;48.854;9.292;2022-11-03T08:12:40;10.82;;;4.68;;
74459;SDS011;62902;48.854;9.292;2022-11-03T08:15:07;13.80;;;5.68;;
74459;SDS011;62902;48.854;9.292;2022-11-03T08:17:34;13.85;;;5.05;;
74459;SDS011;62902;48.854;9.292;2022-11-03T08:20:01;12.13;;;4.75;;
74459;SDS011;62902;48.854;9.292;2022-11-03T08:22:28;12.30;;;4.97;;
74459;SDS011;62902;48.854;9.292;2022-11-03T08:24:55;14.25;;;5.50;;
74459;SDS011;62902;48.854;9.292;2022-11-03T08:27:21;12.15;;;5.22;;
74459;SDS011;62902;48.854;9.292;2022-11-03T08:29:48;13.90;;;6.30;;
74459;SDS011;62902;48.854;9.292;2022-11-03T08:32:15;13.68;;;5.47;;
74459;SDS011;62902;48.854;9.292;2022-11-03T08:34:42;11.88;;;5.32;;
74459;SDS011;62902;48.854;9.292;2022-11-03T08:37:09;13.90;;;5.65;;
74459;SDS011;62902;48.854;9.292;2022-11-03T08:39:35;16.75;;;6.18;;
74459;SDS011;62902;48.854;9.292;2022-11-03T08:42:02;13.85;;;5.10;;
74459;SDS011;62902;48.854;9.292;2022-11-03T08:44:29;10.60;;;4.78;;
74459;SDS011;62902;48.854;9.292;2022-11-03T08:46:56;11.73;;;4.82;;
74459;SDS011;62902;48.854;9.292;2022-11-03T08:49:32;9.82;;;4.82;;
74459;SDS011;62902;48.854;9.292;2022-11-03T08:51:59;9.00;;;4.10;;
74459;SDS011;62902;48.854;9.292;2022-11-03T08:54:26;10.75;;;5.15;;
74459;SDS011;62902;48.854;9.292;2022-11-03T08:56:52;9.60;;;4.72;;
74459;SDS011;62902;48.854;9.292;2022-11-03T08:59:19;10.32;;;4.85;;
74459;SDS011;62902;48.854;9.292;2022-11-03T09:01:46;11.00;;;4.43;;
74459;SDS011;62902;48.854;9.292;2022-11-03T09:04:12;10.98;;;5.00;;
74459;SDS011;62902;48.854;9.292;2022-11-03T09:06:39;11.27;;;4.80;;
74459;SDS011;62902;48.854;9.292;2022-11-03T09:09:06;13.85;;;4.90;;
74459;SDS011;62902;48.854;9.292;2022-11-03T09:11:52;15.00;;;5.07;;
74459;SDS011;62902;48.854;9.292;2022-11-03T09:14:19;10.48;;;4.53;;
74459;SDS011;62902;48.854;9.292;2022-11-03T09:16:46;9.73;;;4.50;;
74459;SDS011;62902;48.854;9.292;2022-11-03T09:19:12;8.40;;;4.38;;
74459;SDS011;62902;48.854;9.292;2022-11-03T09:21:39;13.68;;;5.22;;
74459;SDS011;62902;48.854;9.292;2022-11-03T09:24:06;18.33;;;5.30;;
74459;SDS011;62902;48.854;9.292;2022-11-03T09:26:32;11.10;;;4.70;;
74459;SDS011;62902;48.854;9.292;2022-11-03T09:28:59;10.73;;;4.47;;
74459;SDS011;62902;48.854;9.292;2022-11-03T09:31:26;8.23;;;4.55;;
74459;SDS011;62902;48.854;9.292;2022-11-03T09:33:54;11.77;;;4.85;;
74459;SDS011;62902;48.854;9.292;2022-11-03T09:36:21;10.13;;;4.80;;
74459;SDS011;62902;48.854;9.292;2022-11-03T09:38:47;10.48;;;4.10;;
74459;SDS011;62902;48.854;9.292;2022-11-03T09:41:14;10.75;;;4.50;;
74459;SDS011;62902;48.854;9.292;2022-11-03T09:43:53;11.70;;;4.70;;
74459;SDS011;62902;48.854;9.292;2022-11-03T09:46:22;11.25;;;5.03;;
74459;SDS011;62902;48.854;9.292;2022-11-03T09:48:48;13.55;;;5.72;;
74459;SDS011;62902;48.854;9.292;2022-11-03T09:51:19;13.60;;;4.75;;
74459;SDS011;62902;48.854;9.292;2022-11-03T09:53:46;14.93;;;4.78;;
74459;SDS011;62902;48.854;9.292;2022-11-03T09:56:15;11.40;;;4.55;;
74459;SDS011;62902;48.854;9.292;2022-11-03T09:58:43;10.43;;;6.60;;
74459;SDS011;62902;48.854;9.292;2022-11-03T10:01:16;8.10;;;3.80;;
74459;SDS011;62902;48.854;9.292;2022-11-03T10:03:43;6.63;;;3.42;;
74459;SDS011;62902;48.854;9.292;2022-11-03T10:06:09;9.95;;;3.75;;
74459;SDS011;62902;48.854;9.292;2022-11-03T10:08:40;9.25;;;3.95;;
74459;SDS011;62902;48.854;9.292;2022-11-03T10:11:11;10.43;;;3.67;;
74459;SDS011;62902;48.854;9.292;2022-11-03T10:13:38;8.50;;;3.42;;
74459;SDS011;62902;48.854;9.292;2022-11-03T10:16:07;10.68;;;3.80;;
74459;SDS011;62902;48.854;9.292;2022-11-03T10:18:35;8.93;;;3.25;;
74459;SDS011;62902;48.854;9.292;2022-11-03T10:21:03;8.75;;;3.42;;
74459;SDS011;62902;48.854;9.292;2022-11-03T10:23:32;11.18;;;3.05;;
74459;SDS011;62902;48.854;9.292;2022-11-03T10:26:08;7.80;;;3.28;;
74459;SDS011;62902;48.854;9.292;2022-11-03T10:28:37;5.55;;;2.80;;
74459;SDS011;62902;48.854;9.292;2022-11-03T10:31:04;11.18;;;2.95;;
74459;SDS011;62902;48.854;9.292;2022-11-03T10:33:41;7.22;;;2.92;;
74459;SDS011;62902;48.854;9.292;2022-11-03T10:36:21;14.13;;;3.67;;
74459;SDS011;62902;48.854;9.292;2022-11-03T10:38:49;7.10;;;3.08;;
74459;SDS011;62902;48.854;9.292;2022-11-03T10:44:32;7.18;;;3.00;;
74459;SDS011;62902;48.854;9.292;2022-11-03T10:46:36;7.72;;;3.28;;
74459;SDS011;62902;48.854;9.292;2022-11-03T10:49:20;10.27;;;3.58;;
74459;SDS011;62902;48.854;9.292;2022-11-03T10:51:48;8.75;;;3.20;;
74459;SDS011;62902;48.854;9.292;2022-11-03T10:54:16;8.40;;;3.45;;
74459;SDS011;62902;48.854;9.292;2022-11-03T10:56:44;6.32;;;3.22;;
74459;SDS011;62902;48.854;9.292;2022-11-03T11:01:48;9.15;;;3.75;;
74459;SDS011;62902;48.854;9.292;2022-11-03T11:04:16;5.65;;;2.33;;
74459;SDS011;62902;48.854;9.292;2022-11-03T11:06:44;8.60;;;2.55;;
74459;SDS011;62902;48.854;9.292;2022-11-03T11:09:12;6.13;;;2.83;;
74459;SDS011;62902;48.854;9.292;2022-11-03T11:17:02;5.35;;;2.47;;
74459;SDS011;62902;48.854;9.292;2022-11-03T11:19:29;5.85;;;2.47;;
74459;SDS011;62902;48.854;9.292;2022-11-03T11:21:57;8.48;;;2.65;;
74459;SDS011;62902;48.854;9.292;2022-11-03T11:37:41;6.28;;;2.35;;
74459;SDS011;62902;48.854;9.292;2022-11-03T11:51:27;11.35;;;3.20;;
74459;SDS011;62902;48.854;9.292;2022-11-03T11:53:59;7.95;;;2.50;;
74459;SDS011;62902;48.854;9.292;2022-11-03T11:56:44;5.90;;;2.78;;
74459;SDS011;62902;48.854;9.292;2022-11-03T11:59:21;5.78;;;2.22;;
74459;SDS011;62902;48.854;9.292;2022-11-03T12:01:52;5.60;;;2.60;;
74459;SDS011;62902;48.854;9.292;2022-11-03T12:04:32;7.07;;;2.78;;
74459;SDS011;62902;48.854;9.292;2022-11-03T12:07:11;5.95;;;2.53;;
74459;SDS011;62902;48.854;9.292;2022-11-03T12:09:49;9.00;;;2.67;;
74459;SDS011;62902;48.854;9.292;2022-11-03T12:12:31;8.05;;;3.10;;
74459;SDS011;62902;48.854;9.292;2022-11-03T12:14:58;7.20;;;2.83;;
74459;SDS011;62902;48.854;9.292;2022-11-03T12:19:52;5.22;;;2.42;;
74459;SDS011;62902;48.854;9.292;2022-11-03T12:24:52;5.32;;;2.65;;
74459;SDS011;62902;48.854;9.292;2022-11-03T12:29:49;7.85;;;2.88;;
74459;SDS011;62902;48.854;9.292;2022-11-03T12:32:17;7.60;;;2.92;;
74459;SDS011;62902;48.854;9.292;2022-11-03T12:35:03;6.82;;;2.83;;
74459;SDS011;62902;48.854;9.292;2022-11-03T12:37:31;7.40;;;2.50;;
74459;SDS011;62902;48.854;9.292;2022-11-03T12:39:58;6.35;;;2.53;;
74459;SDS011;62902;48.854;9.292;2022-11-03T12:42:24;11.45;;;3.47;;
74459;SDS011;62902;48.854;9.292;2022-11-03T12:44:51;5.60;;;2.50;;
74459;SDS011;62902;48.854;9.292;2022-11-03T12:47:18;8.95;;;2.70;;
74459;SDS011;62902;48.854;9.292;2022-11-03T12:49:45;7.35;;;2.75;;
74459;SDS011;62902;48.854;9.292;2022-11-03T12:52:12;6.57;;;2.50;;
74459;SDS011;62902;48.854;9.292;2022-11-03T12:54:39;5.75;;;2.55;;
74459;SDS011;62902;48.854;9.292;2022-11-03T12:57:07;8.98;;;2.80;;
74459;SDS011;62902;48.854;9.292;2022-11-03T12:59:34;9.90;;;2.90;;
74459;SDS011;62902;48.854;9.292;2022-11-03T13:02:00;10.23;;;3.60;;
74459;SDS011;62902;48.854;9.292;2022-11-03T13:04:27;11.98;;;4.03;;
74459;SDS011;62902;48.854;9.292;2022-11-03T13:06:54;7.63;;;3.20;;
74459;SDS011;62902;48.854;9.292;2022-11-03T13:09:20;8.85;;;3.42;;
74459;SDS011;62902;48.854;9.292;2022-11-03T13:11:47;9.20;;;2.75;;
74459;SDS011;62902;48.854;9.292;2022-11-03T13:14:32;8.77;;;2.65;;
74459;SDS011;62902;48.854;9.292;2022-11-03T13:16:59;6.55;;;2.47;;
74459;SDS011;62902;48.854;9.292;2022-11-03T13:19:25;7.95;;;2.67;;
74459;SDS011;62902;48.854;9.292;2022-11-03T13:21:52;6.97;;;2.70;;
74459;SDS011;62902;48.854;9.292;2022-11-03T13:24:18;7.55;;;2.63;;
74459;SDS011;62902;48.854;9.292;2022-11-03T13:26:45;6.70;;;2.95;;
74459;SDS011;62902;48.854;9.292;2022-11-03T13:29:12;7.05;;;3.30;;
74459;SDS011;62902;48.854;9.292;2022-11-03T13:31:38;5.45;;;2.60;;
74459;SDS011;62902;48.854;9.292;2022-11-03T13:34:05;7.35;;;3.03;;
74459;SDS011;62902;48.854;9.292;2022-11-03T13:36:31;6.10;;;2.25;;
74459;SDS011;62902;48.854;9.292;2022-11-03T13:38:58;6.07;;;2.22;;
74459;SDS011;62902;48.854;9.292;2022-11-03T13:41:25;9.40;;;2.90;;
74459;SDS011;62902;48.854;9.292;2022-11-03T13:43:51;6.97;;;2.60;;
74459;SDS011;62902;48.854;9.292;2022-11-03T13:46:18;9.57;;;2.70;;
74459;SDS011;62902;48.854;9.292;2022-11-03T13:48:45;6.78;;;2.75;;
74459;SDS011;62902;48.854;9.292;2022-11-03T13:51:31;7.38;;;2.83;;
74459;SDS011;62902;48.854;9.292;2022-11-03T13:53:58;7.22;;;3.08;;
74459;SDS011;62902;48.854;9.292;2022-11-03T13:56:50;9.68;;;3.53;;
74459;SDS011;62902;48.854;9.292;2022-11-03T13:59:36;5.43;;;2.88;;
74459;SDS011;62902;48.854;9.292;2022-11-03T14:02:03;9.60;;;3.15;;
74459;SDS011;62902;48.854;9.292;2022-11-03T14:04:50;5.78;;;2.60;;
74459;SDS011;62902;48.854;9.292;2022-11-03T14:07:17;7.28;;;3.10;;
74459;SDS011;62902;48.854;9.292;2022-11-03T14:09:44;7.38;;;3.00;;
74459;SDS011;62902;48.854;9.292;2022-11-03T14:12:10;10.45;;;3.53;;
74459;SDS011;62902;48.854;9.292;2022-11-03T14:14:56;8.35;;;3.45;;
74459;SDS011;62902;48.854;9.292;2022-11-03T14:19:50;8.15;;;3.13;;
74459;SDS011;62902;48.854;9.292;2022-11-03T14:22:24;9.15;;;3.50;;
74459;SDS011;62902;48.854;9.292;2022-11-03T14:24:51;8.45;;;3.33;;
74459;SDS011;62902;48.854;9.292;2022-11-03T14:27:18;10.55;;;3.50;;
74459;SDS011;62902;48.854;9.292;2022-11-03T14:29:45;8.95;;;4.10;;
74459;SDS011;62902;48.854;9.292;2022-11-03T14:32:15;8.10;;;3.95;;
74459;SDS011;62902;48.854;9.292;2022-11-03T14:34:43;8.60;;;3.40;;
74459;SDS011;62902;48.854;9.292;2022-11-03T14:37:10;8.45;;;3.72;;
74459;SDS011;62902;48.854;9.292;2022-11-03T14:39:37;9.48;;;3.53;;
74459;SDS011;62902;48.854;9.292;2022-11-03T14:42:11;13.38;;;3.92;;
74459;SDS011;62902;48.854;9.292;2022-11-03T14:44:42;7.88;;;3.92;;
74459;SDS011;62902;48.854;9.292;2022-11-03T14:47:11;8.23;;;3.30;;
74459;SDS011;62902;48.854;9.292;2022-11-03T14:49:38;7.80;;;3.35;;
74459;SDS011;62902;48.854;9.292;2022-11-03T14:52:06;8.85;;;3.25;;
74459;SDS011;62902;48.854;9.292;2022-11-03T14:54:33;9.55;;;3.22;;
74459;SDS011;62902;48.854;9.292;2022-11-03T14:57:00;8.77;;;3.13;;
74459;SDS011;62902;48.854;9.292;2022-11-03T14:59:27;7.72;;;3.40;;
74459;SDS011;62902;48.854;9.292;2022-11-03T15:01:54;9.40;;;3.13;;
74459;SDS011;62902;48.854;9.292;2022-11-03T15:04:21;5.45;;;3.13;;
74459;SDS011;62902;48.854;9.292;2022-11-03T15:06:48;12.55;;;3.47;;
74459;SDS011;62902;48.854;9.292;2022-11-03T15:09:14;9.40;;;3.25;;
74459;SDS011;62902;48.854;9.292;2022-11-03T15:11:41;8.95;;;3.95;;
74459;SDS011;62902;48.854;9.292;2022-11-03T15:14:09;11.05;;;3.60;;
74459;SDS011;62902;48.854;9.292;2022-11-03T15:16:37;7.72;;;3.40;;
74459;SDS011;62902;48.854;9.292;2022-11-03T15:19:04;7.45;;;3.50;;
74459;SDS011;62902;48.854;9.292;2022-11-03T15:21:31;16.23;;;3.25;;
74459;SDS011;62902;48.854;9.292;2022-11-03T15:23:58;10.25;;;3.15;;
74459;SDS011;62902;48.854;9.292;2022-11-03T15:26:45;7.38;;;3.28;;
74459;SDS011;62902;48.854;9.292;2022-11-03T15:29:11;4.40;;;2.08;;
74459;SDS011;62902;48.854;9.292;2022-11-03T15:31:38;1999.90;;;999.90;;
74459;SDS011;62902;48.854;9.292;2022-11-03T15:34:12;1999.90;;;999.90;;
74459;SDS011;62902;48.854;9.292;2022-11-03T15:36:39;1999.90;;;999.90;;
74459;SDS011;62902;48.854;9.292;2022-11-03T15:39:06;1999.90;;;999.90;;
74459;SDS011;62902;48.854;9.292;2022-11-03T15:41:32;1999.90;;;999.90;;
74459;SDS011;62902;48.854;9.292;2022-11-03T15:43:59;1999.90;;;999.90;;
74459;SDS011;62902;48.854;9.292;2022-11-03T15:46:25;1999.90;;;999.90;;
74459;SDS011;62902;48.854;9.292;2022-11-03T15:48:52;1999.90;;;999.90;;
74459;SDS011;62902;48.854;9.292;2022-11-03T15:51:21;1999.90;;;999.90;;
74459;SDS011;62902;48.854;9.292;2022-11-03T15:53:48;1999.90;;;999.90;;
74459;SDS011;62902;48.854;9.292;2022-11-03T15:56:24;1999.90;;;999.90;;
74459;SDS011;62902;48.854;9.292;2022-11-03T15:58:51;1999.90;;;999.90;;
74459;SDS011;62902;48.854;9.292;2022-11-03T16:01:17;1999.90;;;999.90;;
74459;SDS011;62902;48.854;9.292;2022-11-03T16:03:44;1999.90;;;999.90;;
74459;SDS011;62902;48.854;9.292;2022-11-03T16:06:11;1999.90;;;999.90;;
74459;SDS011;62902;48.854;9.292;2022-11-03T16:08:38;1999.90;;;999.90;;
74459;SDS011;62902;48.854;9.292;2022-11-03T16:11:04;1999.90;;;999.90;;
74459;SDS011;62902;48.854;9.292;2022-11-03T16:13:31;1999.90;;;999.90;;
74459;SDS011;62902;48.854;9.292;2022-11-03T16:15:57;1999.90;;;999.90;;
74459;SDS011;62902;48.854;9.292;2022-11-03T16:18:24;1999.90;;;999.90;;
74459;SDS011;62902;48.854;9.292;2022-11-03T16:20:51;1999.90;;;999.90;;
74459;SDS011;62902;48.854;9.292;2022-11-03T16:23:18;1999.90;;;999.90;;